Terminal Aerodrome Forecast
Issued by NWS Topeka, KS

Home | Current Version | Previous Version | Graphics & Text | Print | Product List | Glossary On
Versions: 1 2 3 4 5 6 7 8 9 10 11 12 13 14
000
FTUS43 KTOP 230520
TAFTOP
TAF
KTOP 230520Z 2306/2406 06005KT P6SM VCTS BKN100CB
      TEMPO 2306/2307 5SM TSRA BKN050CB
     FM230800 07003KT P6SM SCT020 SCT090=

USA.gov is the U.S. government's official web portal to all federal, state and local government web resources and services.